Time;durP1;ratioP1;P1;durP2;ratioP2;P2;SDS_P1;SDS_P2;PMS_P1;PMS_P2;Temp;Humidity;BMP_temperature;BMP_pressure;BME280_temperature;BME280_humidity;BME280_pressure;Samples;Min_cycle;Max_cycle;Signal;HPM_P1;HPM_P2
2021/06/16 00:01:44;;;;;;;10.70;7.17;;;20.10;1.00;;;;;;5033292;28;20399;-77
2021/06/16 00:04:12;;;;;;;12.13;6.97;;;20.10;1.00;;;;;;5033509;28;20374;-77
2021/06/16 00:06:37;;;;;;;17.80;7.70;;;20.10;1.00;;;;;;5033573;28;20434;-75
2021/06/16 00:09:05;;;;;;;9.27;7.10;;;20.00;1.00;;;;;;5033422;28;20410;-75
2021/06/16 00:11:38;;;;;;;7.17;6.37;;;20.00;1.00;;;;;;5033200;28;20272;-74
2021/06/16 00:14:04;;;;;;;16.70;6.80;;;20.00;1.00;;;;;;5033775;28;20493;-74
2021/06/16 00:16:30;;;;;;;19.10;8.13;;;20.00;1.00;;;;;;5033465;28;20394;-74
2021/06/16 00:18:56;;;;;;;22.57;8.40;;;20.00;1.00;;;;;;5033228;28;20413;-75
2021/06/16 00:21:22;;;;;;;16.07;7.80;;;19.90;1.00;;;;;;5049531;28;20417;-76
2021/06/16 00:31:02;;;;;;;13.43;7.27;;;19.80;1.00;;;;;;5033054;28;20453;-77
2021/06/16 00:33:44;;;;;;;8.07;6.80;;;19.80;1.00;;;;;;5033471;28;20441;-77
2021/06/16 00:36:14;;;;;;;8.97;7.43;;;19.70;1.00;;;;;;5033281;28;20409;-75
2021/06/16 00:38:40;;;;;;;14.70;7.60;;;19.70;1.00;;;;;;5033584;28;20436;-75
2021/06/16 00:41:14;;;;;;;19.53;8.60;;;19.70;1.00;;;;;;5033406;28;20394;-75
2021/06/16 00:43:40;;;;;;;10.30;7.30;;;19.70;1.00;;;;;;5032964;28;20490;-75
2021/06/16 00:46:05;;;;;;;8.73;6.87;;;19.70;1.00;;;;;;5033082;28;20413;-74
2021/06/16 00:48:32;;;;;;;16.10;7.73;;;19.60;1.00;;;;;;5036529;28;20194;-74
2021/06/16 00:50:58;;;;;;;8.90;7.17;;;;;;;;;;5053191;28;20230;-74
2021/06/16 00:53:26;;;;;;;15.33;7.60;;;19.60;1.00;;;;;;5052856;28;20903;-75
2021/06/16 00:55:52;;;;;;;12.47;7.10;;;;;;;;;;5052123;28;20397;-75
2021/06/16 00:58:18;;;;;;;9.77;6.83;;;19.60;1.00;;;;;;5033091;28;20403;-74
2021/06/16 01:01:07;;;;;;;13.27;7.80;;;19.60;1.00;;;;;;5033118;28;20407;-74
2021/06/16 01:03:50;;;;;;;11.93;7.70;;;19.60;1.00;;;;;;5033139;28;20166;-75
2021/06/16 01:06:42;;;;;;;12.93;7.17;;;19.60;1.00;;;;;;5031751;28;20489;-75
2021/06/16 01:09:32;;;;;;;13.70;8.20;;;19.50;1.00;;;;;;5032886;28;20407;-74
2021/06/16 01:12:10;;;;;;;15.43;7.50;;;19.50;1.00;;;;;;5035772;28;20879;-74
2021/06/16 01:14:53;;;;;;;14.60;8.10;;;19.50;1.00;;;;;;5036540;28;20912;-74
2021/06/16 01:17:45;;;;;;;17.33;8.03;;;19.40;1.00;;;;;;5040679;28;20424;-75
2021/06/16 01:20:38;;;;;;;16.63;8.20;;;19.40;1.00;;;;;;5055385;28;20448;-74
2021/06/16 01:23:19;;;;;;;12.40;7.60;;;19.40;1.00;;;;;;5056848;28;20393;-75
2021/06/16 01:26:09;;;;;;;19.47;8.10;;;19.40;1.00;;;;;;5045607;28;20392;-75
2021/06/16 01:28:38;;;;;;;12.07;8.40;;;19.30;1.00;;;;;;5036334;28;20441;-75
2021/06/16 01:31:13;;;;;;;10.40;7.90;;;19.30;1.00;;;;;;5036331;28;20413;-75
2021/06/16 01:33:45;;;;;;;12.93;8.17;;;19.30;1.00;;;;;;5036335;28;20377;-75
2021/06/16 01:36:12;;;;;;;26.50;7.63;;;19.20;1.00;;;;;;5036211;28;20536;-75
2021/06/16 01:38:45;;;;;;;15.57;8.63;;;19.20;1.00;;;;;;5037721;28;20450;-75
2021/06/16 01:41:21;;;;;;;10.30;7.23;;;19.20;1.00;;;;;;5036187;28;20429;-75
2021/06/16 01:43:51;;;;;;;9.47;7.40;;;19.20;1.00;;;;;;5036047;28;20859;-75
2021/06/16 01:46:18;;;;;;;9.10;7.27;;;19.20;1.00;;;;;;5036288;28;20808;-75
2021/06/16 01:48:45;;;;;;;11.60;8.10;;;19.10;1.00;;;;;;5052500;28;20431;-75
2021/06/16 01:51:12;;;;;;;9.83;7.80;;;19.10;1.00;;;;;;5055683;28;20413;-75
2021/06/16 01:53:51;;;;;;;17.43;8.10;;;19.10;1.00;;;;;;5056015;28;20463;-77
2021/06/16 01:56:21;;;;;;;11.97;7.47;;;19.10;1.00;;;;;;5055873;28;20402;-77
2021/06/16 01:58:51;;;;;;;10.53;7.87;;;19.00;1.00;;;;;;5055181;28;20401;-77
2021/06/16 02:01:46;;;;;;;19.83;7.90;;;19.00;1.00;;;;;;5055649;28;20487;-77
2021/06/16 02:04:12;;;;;;;16.17;8.03;;;19.00;1.00;;;;;;5055989;28;20401;-77
2021/06/16 02:06:44;;;;;;;19.80;8.60;;;19.00;1.00;;;;;;5055029;28;20436;-77
2021/06/16 02:09:27;;;;;;;13.73;7.40;;;18.90;1.00;;;;;;5055530;28;20178;-76
2021/06/16 02:12:37;;;;;;;10.53;7.47;;;18.90;1.00;;;;;;5055436;28;20409;-76
2021/06/16 02:15:16;;;;;;;11.30;7.13;;;18.90;1.00;;;;;;5055268;28;20399;-77
2021/06/16 02:18:02;;;;;;;12.73;7.50;;;18.90;1.00;;;;;;5055284;28;20397;-76
2021/06/16 02:20:29;;;;;;;13.33;8.30;;;18.90;1.00;;;;;;5055610;28;20406;-77
2021/06/16 02:23:37;;;;;;;17.30;7.90;;;18.80;1.00;;;;;;5045906;28;20395;-78
2021/06/16 02:26:04;;;;;;;11.70;7.80;;;;;;;;;;5054017;28;20431;-77
2021/06/16 02:28:30;;;;;;;15.67;8.10;;;;;;;;;;5055437;28;20801;-77
2021/06/16 02:31:20;;;;;;;11.57;7.70;;;18.80;1.00;;;;;;5055054;28;20838;-77
2021/06/16 02:37:17;;;;;;;13.53;7.73;;;;;;;;;;5039176;28;20494;-77
2021/06/16 02:39:47;;;;;;;12.93;7.90;;;18.70;1.00;;;;;;5054884;28;20396;-77
2021/06/16 02:42:55;;;;;;;15.73;8.50;;;18.70;1.00;;;;;;5055035;28;20961;-77
2021/06/16 02:45:23;;;;;;;10.47;8.00;;;18.70;1.00;;;;;;5050605;28;20422;-77
2021/06/16 02:47:51;;;;;;;15.30;8.47;;;18.70;1.00;;;;;;5034560;28;20491;-77
2021/06/16 02:50:50;;;;;;;10.67;7.40;;;18.70;1.00;;;;;;5034968;28;20385;-77
2021/06/16 02:54:09;;;;;;;17.33;8.30;;;18.70;1.00;;;;;;5050835;28;20416;-77
2021/06/16 02:56:38;;;;;;;15.33;8.00;;;18.60;1.00;;;;;;5054300;28;20497;-77
2021/06/16 02:59:22;;;;;;;15.40;7.90;;;18.60;1.00;;;;;;5054293;28;20390;-76
2021/06/16 03:05:32;;;;;;;17.73;8.60;;;18.60;1.00;;;;;;5034181;28;20978;-77
2021/06/16 03:08:09;;;;;;;13.13;7.87;;;18.50;1.00;;;;;;5034515;28;20503;-77
2021/06/16 03:10:52;;;;;;;15.83;8.33;;;18.50;1.00;;;;;;5034365;28;20506;-76
2021/06/16 03:13:33;;;;;;;22.20;8.40;;;18.60;1.00;;;;;;5034293;28;20849;-78
2021/06/16 03:16:32;;;;;;;11.93;7.50;;;18.50;1.00;;;;;;5034213;28;20376;-76
2021/06/16 03:19:26;;;;;;;11.03;8.00;;;18.50;1.00;;;;;;5034096;28;20372;-77
2021/06/16 03:21:58;;;;;;;17.23;8.27;;;18.50;1.00;;;;;;5034343;28;20404;-77
2021/06/16 03:24:25;;;;;;;15.17;7.97;;;18.50;1.00;;;;;;5034425;28;20874;-75
2021/06/16 03:26:56;;;;;;;13.83;7.83;;;18.50;1.00;;;;;;5034002;28;20428;-75
2021/06/16 03:29:23;;;;;;;18.73;8.50;;;18.50;1.00;;;;;;5035236;28;20399;-75
2021/06/16 03:31:57;;;;;;;12.90;7.10;;;;;;;;;;5053929;28;20403;-75
2021/06/16 03:34:23;;;;;;;10.90;7.27;;;18.60;1.00;;;;;;5053903;28;20367;-75
2021/06/16 03:36:50;;;;;;;8.93;7.47;;;18.50;1.00;;;;;;5054137;28;20777;-74
2021/06/16 03:40:07;;;;;;;27.47;9.30;;;18.60;1.00;;;;;;5054231;28;20469;-77
2021/06/16 03:42:50;;;;;;;12.63;7.37;;;18.60;1.00;;;;;;5053345;28;20399;-77
2021/06/16 03:45:17;;;;;;;10.90;8.13;;;;;;;;;;5053822;28;20396;-77
2021/06/16 03:47:46;;;;;;;8.50;6.97;;;18.60;1.00;;;;;;5053916;28;20471;-77
2021/06/16 03:50:38;;;;;;;16.73;8.17;;;18.70;1.00;;;;;;5053143;28;20753;-78
2021/06/16 03:53:08;;;;;;;11.60;7.67;;;18.70;1.00;;;;;;5053716;28;20475;-75
2021/06/16 03:55:34;;;;;;;13.80;7.13;;;18.70;1.00;;;;;;5053529;28;20479;-75
2021/06/16 03:58:02;;;;;;;18.30;8.93;;;18.70;1.00;;;;;;5052874;28;20484;-75
2021/06/16 04:00:28;;;;;;;12.13;7.60;;;18.80;1.00;;;;;;5052858;28;20479;-75
2021/06/16 04:02:54;;;;;;;12.10;7.97;;;18.80;1.00;;;;;;5052980;28;20516;-74
2021/06/16 04:05:20;;;;;;;11.17;7.70;;;18.90;1.00;;;;;;5053403;28;20173;-75
2021/06/16 04:08:05;;;;;;;11.87;7.63;;;18.90;1.00;;;;;;5053106;28;20464;-75
2021/06/16 04:10:50;;;;;;;10.87;7.60;;;19.00;1.00;;;;;;5053791;28;20168;-77
2021/06/16 04:13:32;;;;;;;12.67;7.67;;;19.00;1.00;;;;;;5052998;28;20399;-77
2021/06/16 04:15:58;;;;;;;18.20;8.50;;;19.10;1.00;;;;;;5053065;28;20389;-77
2021/06/16 04:18:24;;;;;;;12.10;8.20;;;19.10;1.00;;;;;;5053320;28;20401;-77
2021/06/16 04:20:50;;;;;;;11.70;7.53;;;19.20;1.00;;;;;;5052057;28;20770;-77
2021/06/16 04:23:18;;;;;;;13.80;8.10;;;19.20;1.00;;;;;;5053082;28;20165;-76
2021/06/16 04:25:56;;;;;;;23.33;8.33;;;19.30;1.00;;;;;;5053309;28;20578;-75
2021/06/16 04:28:22;;;;;;;14.80;7.57;;;19.40;1.00;;;;;;5051563;28;20475;-75
2021/06/16 04:30:48;;;;;;;16.47;8.07;;;19.50;1.00;;;;;;5052853;28;20798;-75
2021/06/16 04:33:14;;;;;;;11.70;7.27;;;19.50;1.00;;;;;;5053422;28;20181;-75
2021/06/16 04:35:40;;;;;;;18.53;8.50;;;19.70;1.00;;;;;;5053199;28;20158;-75
2021/06/16 04:38:08;;;;;;;11.50;7.53;;;;;;;;;;5053155;28;20421;-75
2021/06/16 04:40:56;;;;;;;13.60;7.20;;;19.80;1.00;;;;;;5053371;28;20937;-77
2021/06/16 04:44:13;;;;;;;13.30;6.70;;;19.90;1.00;;;;;;5052917;28;20376;-77
2021/06/16 04:47:19;;;;;;;17.00;7.00;;;20.00;1.00;;;;;;5054653;28;20480;-77
2021/06/16 04:49:50;;;;;;;8.07;6.53;;;20.00;1.00;;;;;;5056963;28;20441;-77
2021/06/16 04:58:59;;;;;;;12.57;7.03;;;20.40;1.00;;;;;;5057018;28;20427;-80
2021/06/16 05:02:02;;;;;;;8.70;6.80;;;20.50;1.00;;;;;;5056141;28;20903;-80
2021/06/16 05:11:37;;;;;;;12.07;6.70;;;20.80;1.00;;;;;;5055821;28;20453;-78
2021/06/16 05:20:47;;;;;;;11.50;7.53;;;21.10;1.00;;;;;;5056333;28;20375;-78
2021/06/16 05:26:36;;;;;;;21.70;7.20;;;;;;;;;;5056235;28;20210;-80
2021/06/16 05:29:02;;;;;;;20.63;7.40;;;21.40;1.00;;;;;;5056188;28;20398;-80
2021/06/16 05:34:51;;;;;;;15.00;6.38;;;21.70;1.00;;;;;;5055116;28;20406;-77
2021/06/16 05:37:38;;;;;;;12.30;7.17;;;21.80;1.00;;;;;;5049984;28;20177;-77
2021/06/16 05:40:08;;;;;;;15.13;7.33;;;;;;;;;;5054530;28;20921;-79
2021/06/16 05:43:01;;;;;;;10.00;7.00;;;;;;;;;;5052150;28;20397;-79
2021/06/16 05:45:44;;;;;;;20.13;7.43;;;21.80;1.00;;;;;;5055871;28;20392;-79
2021/06/16 05:51:31;;;;;;;10.70;6.50;;;21.80;1.00;;;;;;5055408;28;20450;-79
2021/06/16 05:57:19;;;;;;;12.40;7.30;;;21.80;1.00;;;;;;5038541;28;20273;-79
2021/06/16 06:03:43;;;;;;;13.47;7.93;;;21.90;1.00;;;;;;5035334;28;20548;-79
2021/06/16 06:09:31;;;;;;;16.90;7.40;;;21.90;1.00;;;;;;5035609;28;20502;-78
2021/06/16 06:11:58;;;;;;;21.60;7.50;;;22.00;1.00;;;;;;5035415;28;20740;-76
2021/06/16 06:14:56;;;;;;;17.17;7.23;;;22.00;1.00;;;;;;5035357;28;20769;-76
2021/06/16 06:17:32;;;;;;;13.63;6.60;;;;;;;;;;5042771;28;20465;-75
2021/06/16 06:20:09;;;;;;;11.20;7.40;;;22.10;1.00;;;;;;5055065;28;20404;-80
2021/06/16 06:22:38;;;;;;;20.93;7.90;;;22.20;1.00;;;;;;5055126;28;20500;-80
2021/06/16 06:25:49;;;;;;;11.47;6.60;;;22.20;1.00;;;;;;5055148;28;20866;-80
2021/06/16 06:28:26;;;;;;;18.27;8.53;;;22.20;1.00;;;;;;5054824;28;20439;-77
2021/06/16 06:30:56;;;;;;;19.47;7.20;;;22.20;1.00;;;;;;5054826;28;20371;-77
2021/06/16 06:33:32;;;;;;;11.07;8.10;;;;;;;;;;5054178;28;20905;-79
2021/06/16 06:35:58;;;;;;;15.97;8.43;;;22.40;1.00;;;;;;5058441;28;20439;-77
2021/06/16 06:38:24;;;;;;;15.43;7.80;;;22.50;1.00;;;;;;5048259;28;20785;-77
2021/06/16 06:40:51;;;;;;;13.87;7.50;;;22.60;1.00;;;;;;5035119;28;20275;-79
2021/06/16 06:43:17;;;;;;;18.90;7.77;;;;;;;;;;5043299;28;20444;-78
2021/06/16 06:45:44;;;;;;;17.10;7.20;;;22.70;1.00;;;;;;5053563;28;20382;-77
2021/06/16 06:48:10;;;;;;;16.83;7.47;;;22.70;1.00;;;;;;5053560;28;20452;-77
2021/06/16 06:50:36;;;;;;;12.87;7.37;;;;;;;;;;5053216;28;20881;-77
2021/06/16 06:53:02;;;;;;;16.90;8.27;;;;;;;;;;5042511;28;20210;-77
2021/06/16 06:55:28;;;;;;;20.63;8.17;;;;;;;;;;5033664;28;20394;-79
2021/06/16 06:57:54;;;;;;;13.40;7.60;;;;;;;;;;5053079;28;20421;-79
2021/06/16 07:00:21;;;;;;;11.80;7.77;;;;;;;;;;5053135;28;20786;-79
2021/06/16 07:02:47;;;;;;;14.67;7.53;;;23.00;1.00;;;;;;5053089;28;20402;-79
2021/06/16 07:05:14;;;;;;;18.70;7.47;;;23.10;1.00;;;;;;5053152;28;20403;-79
2021/06/16 07:07:40;;;;;;;13.57;8.33;;;23.20;1.00;;;;;;5052477;28;20800;-79
2021/06/16 07:10:06;;;;;;;10.93;7.30;;;23.20;1.00;;;;;;5053183;28;20559;-79
2021/06/16 07:12:32;;;;;;;11.47;7.60;;;23.30;1.00;;;;;;5053258;28;20182;-79
2021/06/16 07:14:57;;;;;;;23.83;8.53;;;23.30;1.00;;;;;;5053194;28;20399;-79
2021/06/16 07:17:23;;;;;;;13.90;7.73;;;23.40;1.00;;;;;;5052803;28;20156;-79
2021/06/16 07:19:50;;;;;;;25.30;8.17;;;23.40;1.00;;;;;;5052689;28;20585;-79
2021/06/16 07:22:17;;;;;;;10.87;8.37;;;;;;;;;;5053070;28;20896;-79
2021/06/16 07:24:42;;;;;;;15.17;8.10;;;23.50;1.00;;;;;;5053016;28;20406;-79
2021/06/16 07:27:10;;;;;;;15.93;8.87;;;23.50;1.00;;;;;;5053548;28;20445;-77
2021/06/16 07:29:36;;;;;;;13.70;7.90;;;23.60;1.00;;;;;;5046525;28;20658;-77
2021/06/16 07:32:02;;;;;;;25.33;8.57;;;23.50;1.00;;;;;;5032273;28;20408;-77
2021/06/16 07:34:28;;;;;;;17.23;8.40;;;23.60;1.00;;;;;;5052720;28;20164;-77
2021/06/16 07:36:54;;;;;;;14.97;8.40;;;23.70;1.00;;;;;;5067017;28;20437;-77
2021/06/16 07:39:20;;;;;;;14.50;8.43;;;23.90;1.00;;;;;;5071986;28;20511;-77
2021/06/16 07:41:46;;;;;;;13.20;8.30;;;23.90;1.00;;;;;;5045709;28;20444;-77
2021/06/16 07:44:11;;;;;;;14.50;8.67;;;24.00;1.00;;;;;;5044003;28;20483;-77
2021/06/16 07:46:37;;;;;;;12.23;7.87;;;;;;;;;;5052848;28;20163;-76
2021/06/16 07:49:03;;;;;;;10.90;7.87;;;;;;;;;;5052054;28;20597;-77
2021/06/16 07:51:29;;;;;;;15.20;8.07;;;24.30;1.00;;;;;;5049472;28;20426;-81
2021/06/16 07:53:55;;;;;;;13.00;8.27;;;24.50;1.00;;;;;;5048540;28;20869;-75
2021/06/16 07:56:21;;;;;;;16.00;8.73;;;24.50;1.00;;;;;;5034731;28;20228;-78
2021/06/16 07:58:46;;;;;;;17.70;9.30;;;24.70;1.00;;;;;;5031893;28;20269;-78
2021/06/16 08:01:12;;;;;;;17.57;8.60;;;24.90;1.00;;;;;;5032287;28;20250;-78
2021/06/16 08:03:37;;;;;;;11.10;7.93;;;25.00;1.00;;;;;;5032619;28;20176;-78
2021/06/16 08:06:04;;;;;;;13.17;8.37;;;25.10;1.00;;;;;;5035448;28;20187;-78
2021/06/16 08:08:30;;;;;;;12.27;7.57;;;25.10;1.00;;;;;;5037879;28;20255;-78
2021/06/16 08:11:01;;;;;;;15.20;8.80;;;25.30;1.00;;;;;;5052456;28;20433;-76
2021/06/16 08:13:26;;;;;;;14.70;7.93;;;25.50;1.00;;;;;;5051666;28;20404;-76
2021/06/16 08:15:56;;;;;;;12.43;7.37;;;25.80;1.00;;;;;;5052285;28;20926;-76
2021/06/16 08:18:22;;;;;;;15.20;7.67;;;26.00;1.00;;;;;;5052072;28;20212;-76
2021/06/16 08:20:47;;;;;;;25.47;9.27;;;26.20;1.00;;;;;;5047211;28;20437;-76
2021/06/16 08:23:13;;;;;;;9.03;7.37;;;26.50;1.00;;;;;;5034100;28;20211;-76
2021/06/16 08:25:40;;;;;;;11.57;6.77;;;26.70;1.00;;;;;;5046575;28;20553;-79
2021/06/16 08:28:06;;;;;;;10.67;7.43;;;26.90;1.00;;;;;;5052231;28;20584;-78
2021/06/16 08:30:32;;;;;;;12.53;8.20;;;27.00;1.00;;;;;;5051504;28;20487;-79
2021/06/16 08:32:57;;;;;;;12.80;7.10;;;27.20;1.00;;;;;;5051964;28;20297;-78
2021/06/16 08:35:23;;;;;;;17.33;8.00;;;;;;;;;;5051199;28;20495;-78
2021/06/16 08:37:50;;;;;;;12.83;7.50;;;27.40;1.00;;;;;;5052007;28;20227;-78
2021/06/16 08:40:16;;;;;;;9.90;7.27;;;27.60;1.00;;;;;;5060306;28;20756;-78
2021/06/16 08:42:43;;;;;;;19.33;8.47;;;27.60;1.00;;;;;;5060096;28;20490;-75
2021/06/16 08:45:09;;;;;;;12.67;7.20;;;27.70;1.00;;;;;;5033054;28;20432;-75
2021/06/16 08:47:35;;;;;;;10.87;7.37;;;27.70;1.00;;;;;;5031170;28;20450;-76
2021/06/16 08:50:07;;;;;;;10.60;7.23;;;27.80;1.00;;;;;;5047981;28;20763;-76
2021/06/16 08:52:32;;;;;;;10.37;7.80;;;27.80;1.00;;;;;;5049960;28;20404;-75
2021/06/16 08:55:10;;;;;;;12.73;7.43;;;27.70;1.00;;;;;;5058021;28;20493;-75
2021/06/16 08:57:36;;;;;;;10.73;7.50;;;27.70;1.00;;;;;;5052185;28;20177;-76
2021/06/16 09:00:04;;;;;;;16.00;7.13;;;27.80;1.00;;;;;;5049568;28;20507;-78
2021/06/16 09:02:32;;;;;;;10.33;7.77;;;;;;;;;;5038672;28;20450;-78
2021/06/16 09:05:03;;;;;;;9.10;7.00;;;27.80;1.00;;;;;;5040460;28;20466;-78
2021/06/16 09:07:32;;;;;;;14.13;8.30;;;30.00;1.00;;;;;;5051398;28;20853;-78
2021/06/16 09:10:09;;;;;;;8.87;6.63;;;28.00;1.00;;;;;;5051601;28;20432;-78
2021/06/16 09:12:39;;;;;;;21.50;8.10;;;28.00;1.00;;;;;;5051856;28;20866;-75
2021/06/16 09:15:14;;;;;;;11.00;7.50;;;28.10;1.00;;;;;;5056956;28;20478;-75
2021/06/16 09:17:40;;;;;;;19.03;8.10;;;28.00;1.00;;;;;;5070686;28;20427;-75
2021/06/16 09:20:07;;;;;;;22.33;8.37;;;28.20;1.00;;;;;;5064879;28;20952;-75
2021/06/16 09:22:36;;;;;;;9.57;7.40;;;28.30;1.00;;;;;;5051474;28;20404;-75
2021/06/16 09:25:06;;;;;;;21.07;7.37;;;28.30;1.00;;;;;;5051504;28;20918;-75
2021/06/16 09:27:55;;;;;;;13.20;7.80;;;28.50;1.00;;;;;;5050139;28;20501;-75
2021/06/16 09:30:22;;;;;;;14.73;8.03;;;28.40;1.00;;;;;;5051759;28;20429;-75
2021/06/16 09:32:49;;;;;;;14.30;8.67;;;28.30;1.00;;;;;;5053833;28;20472;-75
2021/06/16 09:35:24;;;;;;;12.30;8.70;;;28.50;1.00;;;;;;5053325;28;20754;-75
2021/06/16 09:37:50;;;;;;;10.00;8.00;;;28.50;1.00;;;;;;5056814;28;20457;-75
2021/06/16 09:40:26;;;;;;;15.43;8.30;;;28.60;1.00;;;;;;5052736;28;20772;-77
2021/06/16 09:43:03;;;;;;;17.10;8.10;;;28.70;1.00;;;;;;5051749;28;20914;-77
2021/06/16 09:45:29;;;;;;;18.10;8.73;;;28.80;1.00;;;;;;5054843;28;20433;-77
2021/06/16 09:47:56;;;;;;;12.03;7.90;;;28.90;1.00;;;;;;5054320;28;20547;-77
2021/06/16 09:50:24;;;;;;;18.23;7.83;;;29.10;1.00;;;;;;5055286;28;20495;-78
2021/06/16 09:52:51;;;;;;;10.47;7.53;;;29.10;1.00;;;;;;5049596;28;20430;-77
2021/06/16 09:55:30;;;;;;;13.37;7.47;;;29.10;1.00;;;;;;5054877;28;20500;-78
2021/06/16 09:57:56;;;;;;;13.93;8.10;;;29.20;1.00;;;;;;5054982;28;20400;-75
2021/06/16 10:00:30;;;;;;;11.87;8.00;;;29.40;1.00;;;;;;5054159;28;20454;-75
2021/06/16 10:03:20;;;;;;;10.90;6.90;;;29.40;1.00;;;;;;5046962;28;20482;-75
2021/06/16 10:06:05;;;;;;;16.27;8.70;;;29.60;1.00;;;;;;5052485;28;20405;-75
2021/06/16 10:08:48;;;;;;;11.77;7.77;;;29.80;1.00;;;;;;5042069;28;20978;-75
2021/06/16 10:11:16;;;;;;;12.47;7.67;;;30.00;1.00;;;;;;5034302;28;20409;-75
2021/06/16 10:13:43;;;;;;;21.67;7.90;;;30.10;1.00;;;;;;5043235;28;20401;-75
2021/06/16 10:16:09;;;;;;;15.43;8.03;;;30.10;1.00;;;;;;5053947;28;20402;-78
2021/06/16 10:18:40;;;;;;;11.40;7.93;;;30.10;1.00;;;;;;5054137;28;20898;-77
2021/06/16 10:21:07;;;;;;;16.07;7.37;;;30.30;1.00;;;;;;5054617;28;20409;-77
2021/06/16 10:23:39;;;;;;;16.80;7.33;;;30.30;1.00;;;;;;5053788;28;20453;-78
2021/06/16 10:26:25;;;;;;;11.83;8.00;;;30.50;1.00;;;;;;5053828;28;20406;-78
2021/06/16 10:29:01;;;;;;;16.77;7.80;;;30.50;1.00;;;;;;5054282;28;20457;-78
2021/06/16 10:31:41;;;;;;;11.50;7.97;;;30.50;1.00;;;;;;5054014;28;20424;-78
2021/06/16 10:34:08;;;;;;;10.13;7.50;;;30.50;1.00;;;;;;5051793;28;20446;-78
2021/06/16 10:36:36;;;;;;;8.33;7.40;;;;;;;;;;5054209;28;20493;-78
2021/06/16 10:39:02;;;;;;;29.20;8.10;;;;;;;;;;5053534;28;20405;-78
2021/06/16 10:41:37;;;;;;;15.10;8.37;;;30.90;1.00;;;;;;5053930;28;20390;-78
2021/06/16 10:44:14;;;;;;;9.93;7.27;;;30.90;1.00;;;;;;5053129;28;20406;-75
2021/06/16 10:47:00;;;;;;;18.43;7.77;;;31.10;1.00;;;;;;5053714;28;20394;-75
2021/06/16 10:49:49;;;;;;;12.47;8.03;;;31.10;1.00;;;;;;5053580;28;20401;-75
2021/06/16 10:52:16;;;;;;;10.97;7.33;;;31.30;1.00;;;;;;5053078;28;20413;-75
2021/06/16 10:55:03;;;;;;;10.30;6.70;;;31.30;1.00;;;;;;5053613;28;20418;-75
2021/06/16 10:57:30;;;;;;;9.27;7.03;;;31.60;1.00;;;;;;5053674;28;20410;-75
2021/06/16 11:00:04;;;;;;;12.10;7.00;;;31.70;1.00;;;;;;5053128;28;20394;-75
2021/06/16 11:02:31;;;;;;;16.03;7.90;;;31.70;1.00;;;;;;5051065;28;20399;-75
2021/06/16 11:05:20;;;;;;;10.40;6.00;;;31.90;1.00;;;;;;5048625;28;20526;-75
2021/06/16 11:07:45;;;;;;;7.90;5.47;;;31.90;99.90;;;;;;5043805;28;20766;-75
2021/06/16 11:10:13;;;;;;;5.73;3.97;;;;;;;;;;5053603;28;20456;-75
2021/06/16 11:12:46;;;;;;;5.70;4.77;;;31.90;99.90;;;;;;5053604;28;20156;-77
2021/06/16 11:15:23;;;;;;;6.87;4.37;;;32.00;99.90;;;;;;5053006;28;20406;-78
2021/06/16 11:17:50;;;;;;;4.17;3.47;;;;;;;;;;5053301;28;20450;-77
2021/06/16 11:20:19;;;;;;;6.63;4.00;;;32.10;99.90;;;;;;5052864;28;20406;-78
2021/06/16 11:22:59;;;;;;;6.63;4.10;;;31.90;99.90;;;;;;5056539;28;20486;-77
2021/06/16 11:25:37;;;;;;;4.60;3.37;;;32.10;99.90;;;;;;5039695;28;20411;-77
2021/06/16 11:28:08;;;;;;;4.90;3.87;;;32.40;99.90;;;;;;5050007;28;20419;-75
2021/06/16 11:30:54;;;;;;;6.20;4.30;;;32.50;99.90;;;;;;5053109;28;20398;-77
2021/06/16 11:35:48;;;;;;;3.80;3.33;;;32.60;99.90;;;;;;5046411;28;20469;-77
2021/06/16 11:38:17;;;;;;;4.80;3.63;;;32.60;99.90;;;;;;5033394;28;20200;-77
2021/06/16 11:40:51;;;;;;;3.87;3.47;;;32.70;99.90;;;;;;5033395;28;20388;-77
2021/06/16 11:43:35;;;;;;;7.33;3.77;;;32.70;99.90;;;;;;5041380;28;20414;-77
2021/06/16 11:46:10;;;;;;;5.90;3.97;;;32.60;99.90;;;;;;5052297;28;20845;-77
2021/06/16 11:48:35;;;;;;;6.40;3.93;;;32.70;99.90;;;;;;5051689;28;20386;-77
2021/06/16 11:51:01;;;;;;;6.13;3.63;;;32.80;99.90;;;;;;5036763;28;20444;-77
2021/06/16 11:53:33;;;;;;;12.90;4.30;;;33.00;99.90;;;;;;5052685;28;20168;-77
2021/06/16 11:56:10;;;;;;;6.70;4.47;;;33.20;99.90;;;;;;5053553;28;20402;-77
2021/06/16 11:58:44;;;;;;;9.80;3.70;;;33.40;99.90;;;;;;5053767;28;20494;-75
2021/06/16 12:01:15;;;;;;;9.50;3.83;;;33.50;99.90;;;;;;5052719;28;20418;-74
2021/06/16 12:03:56;;;;;;;4.17;3.77;;;33.50;99.90;;;;;;5053176;28;20395;-74
2021/06/16 12:06:22;;;;;;;11.97;4.73;;;33.40;99.90;;;;;;5053232;28;20495;-74
2021/06/16 12:08:59;;;;;;;12.13;4.57;;;33.40;99.90;;;;;;5052167;28;20874;-74
2021/06/16 12:11:28;;;;;;;9.60;4.67;;;33.30;99.90;;;;;;5053234;28;20401;-74
2021/06/16 12:14:05;;;;;;;8.63;3.80;;;33.40;99.90;;;;;;5053333;28;20422;-74
2021/06/16 12:16:39;;;;;;;4.60;3.90;;;33.30;99.90;;;;;;5052954;28;20425;-74
2021/06/16 12:19:19;;;;;;;5.17;3.93;;;33.30;99.90;;;;;;5043748;28;20493;-74
2021/06/16 12:21:59;;;;;;;4.63;3.90;;;33.50;99.90;;;;;;5053057;28;20505;-75
2021/06/16 12:24:27;;;;;;;3.87;3.43;;;33.50;99.90;;;;;;5048270;28;20419;-74
2021/06/16 12:27:19;;;;;;;6.00;3.73;;;33.50;99.90;;;;;;5044958;28;20406;-74
2021/06/16 12:29:56;;;;;;;5.90;3.70;;;33.60;99.90;;;;;;5052780;28;20391;-78
2021/06/16 12:32:46;;;;;;;7.33;4.07;;;33.80;99.90;;;;;;5053125;28;20401;-78
2021/06/16 12:35:28;;;;;;;5.97;3.87;;;33.90;99.90;;;;;;5053062;28;20802;-77
2021/06/16 12:37:56;;;;;;;16.10;4.77;;;34.00;99.90;;;;;;5052977;28;20458;-77
2021/06/16 12:40:34;;;;;;;3.70;3.40;;;34.20;99.90;;;;;;5052839;28;20399;-77
2021/06/16 12:43:04;;;;;;;4.43;4.03;;;34.30;99.90;;;;;;5052605;28;20405;-77
2021/06/16 12:45:33;;;;;;;3.67;3.37;;;34.40;99.90;;;;;;5051785;28;20919;-77
2021/06/16 12:48:20;;;;;;;5.73;3.50;;;34.40;99.90;;;;;;5048063;28;20492;-77
2021/06/16 12:50:59;;;;;;;12.80;4.70;;;34.60;99.90;;;;;;5065928;28;20416;-77
2021/06/16 12:53:26;;;;;;;3.67;3.37;;;34.80;99.90;;;;;;5058235;28;20410;-77
2021/06/16 12:55:55;;;;;;;6.20;3.90;;;34.70;99.90;;;;;;5051380;28;20398;-77
2021/06/16 12:58:22;;;;;;;5.00;3.77;;;34.50;99.90;;;;;;5051966;28;20546;-77
2021/06/16 13:00:53;;;;;;;3.70;3.37;;;34.60;99.90;;;;;;5049372;28;20779;-77
2021/06/16 13:03:25;;;;;;;3.77;3.20;;;34.70;99.90;;;;;;5051436;28;20399;-77
2021/06/16 13:06:02;;;;;;;5.97;4.10;;;34.70;99.90;;;;;;5051103;28;20491;-78
2021/06/16 13:08:35;;;;;;;5.10;3.90;;;;;;;;;;5054882;28;20404;-77
2021/06/16 13:11:36;;;;;;;6.50;3.90;;;35.10;99.90;;;;;;5055620;28;20500;-77
2021/06/16 13:14:21;;;;;;;3.97;3.57;;;35.20;99.90;;;;;;5055323;28;20430;-75
2021/06/16 13:17:08;;;;;;;4.10;3.10;;;35.10;99.90;;;;;;5053794;28;20422;-74
2021/06/16 13:19:54;;;;;;;16.00;4.70;;;35.20;99.90;;;;;;5056324;28;20409;-74
2021/06/16 13:22:30;;;;;;;7.27;3.13;;;35.20;99.90;;;;;;5052866;28;20421;-74
2021/06/16 13:25:04;;;;;;;3.40;3.20;;;35.10;99.90;;;;;;5053109;28;20406;-74
2021/06/16 13:27:44;;;;;;;3.23;3.03;;;35.10;99.90;;;;;;5056164;28;20398;-74
2021/06/16 13:30:32;;;;;;;5.50;3.47;;;35.10;99.90;;;;;;5047261;28;20427;-80
2021/06/16 13:32:58;;;;;;;3.97;3.67;;;35.00;99.90;;;;;;5042546;28;20411;-74
2021/06/16 13:35:26;;;;;;;3.80;3.13;;;35.10;99.90;;;;;;5035069;28;20410;-74
2021/06/16 13:37:53;;;;;;;5.33;3.00;;;35.10;99.90;;;;;;5038263;28;20469;-75
2021/06/16 13:40:19;;;;;;;4.77;3.30;;;35.10;99.90;;;;;;5067178;28;20500;-74
2021/06/16 13:42:55;;;;;;;5.83;3.20;;;35.10;99.90;;;;;;5054426;28;20918;-75
2021/06/16 13:45:25;;;;;;;7.67;3.43;;;35.10;99.90;;;;;;5055188;28;20533;-74
2021/06/16 13:47:50;;;;;;;4.57;3.10;;;35.20;99.90;;;;;;5053084;28;20437;-74
2021/06/16 13:50:17;;;;;;;3.50;3.10;;;35.20;99.90;;;;;;5054803;28;20402;-74
2021/06/16 13:52:43;;;;;;;12.03;2.87;;;35.20;99.90;;;;;;5047783;28;20176;-74
2021/06/16 13:55:09;;;;;;;7.03;3.37;;;35.20;99.90;;;;;;5034296;28;20762;-74
2021/06/16 13:57:35;;;;;;;4.83;3.30;;;35.20;99.90;;;;;;5034600;28;20193;-74
2021/06/16 14:00:09;;;;;;;4.00;3.00;;;35.30;99.90;;;;;;5035164;28;20879;-74
2021/06/16 14:02:35;;;;;;;3.40;3.10;;;35.50;99.90;;;;;;5034156;28;20969;-74
2021/06/16 14:05:02;;;;;;;5.17;3.23;;;35.60;99.90;;;;;;5034672;28;20467;-74
2021/06/16 14:07:28;;;;;;;7.87;3.70;;;35.60;99.90;;;;;;5034450;28;20153;-74
2021/06/16 14:09:54;;;;;;;4.77;3.17;;;35.80;99.90;;;;;;5034189;28;20435;-74
2021/06/16 14:12:19;;;;;;;5.87;3.03;;;35.80;99.90;;;;;;5034363;28;20407;-74
2021/06/16 14:14:46;;;;;;;6.03;3.40;;;35.90;99.90;;;;;;5034802;28;20171;-74
2021/06/16 14:17:12;;;;;;;2.93;2.60;;;35.90;99.90;;;;;;5034625;28;20165;-74
2021/06/16 14:19:38;;;;;;;4.17;3.23;;;36.10;99.90;;;;;;5032817;28;20395;-74
2021/06/16 14:22:03;;;;;;;2.80;2.60;;;36.10;99.90;;;;;;5034382;28;20905;-74
2021/06/16 14:24:29;;;;;;;3.73;2.90;;;36.10;99.90;;;;;;5034705;28;20569;-74